sensor_id;sensor_type;location;lat;lon;timestamp;P1;durP1;ratioP1;P2;durP2;ratioP2
19495;SDS011;9888;48.606;9.630;2023-06-19T00:01:56;15.33;;;8.93;;
19495;SDS011;9888;48.606;9.630;2023-06-19T00:04:52;15.83;;;9.20;;
19495;SDS011;9888;48.606;9.630;2023-06-19T00:07:20;15.60;;;9.43;;
19495;SDS011;9888;48.606;9.630;2023-06-19T00:13:16;15.53;;;9.30;;
19495;SDS011;9888;48.606;9.630;2023-06-19T00:15:59;16.37;;;9.53;;
19495;SDS011;9888;48.606;9.630;2023-06-19T00:18:36;17.40;;;8.77;;
19495;SDS011;9888;48.606;9.630;2023-06-19T00:21:15;15.77;;;8.70;;
19495;SDS011;9888;48.606;9.630;2023-06-19T00:23:44;15.90;;;8.90;;
19495;SDS011;9888;48.606;9.630;2023-06-19T00:26:12;13.93;;;8.63;;
19495;SDS011;9888;48.606;9.630;2023-06-19T00:28:44;17.37;;;9.30;;
19495;SDS011;9888;48.606;9.630;2023-06-19T00:31:13;14.70;;;8.90;;
19495;SDS011;9888;48.606;9.630;2023-06-19T00:33:49;17.77;;;9.90;;
19495;SDS011;9888;48.606;9.630;2023-06-19T00:36:18;15.37;;;8.80;;
19495;SDS011;9888;48.606;9.630;2023-06-19T00:39:02;15.80;;;9.20;;
19495;SDS011;9888;48.606;9.630;2023-06-19T00:41:30;15.00;;;8.67;;
19495;SDS011;9888;48.606;9.630;2023-06-19T00:44:01;17.07;;;9.07;;
19495;SDS011;9888;48.606;9.630;2023-06-19T00:46:28;15.73;;;8.77;;
19495;SDS011;9888;48.606;9.630;2023-06-19T00:49:12;15.20;;;8.80;;
19495;SDS011;9888;48.606;9.630;2023-06-19T00:52:13;18.50;;;9.57;;
19495;SDS011;9888;48.606;9.630;2023-06-19T00:54:58;14.17;;;8.40;;
19495;SDS011;9888;48.606;9.630;2023-06-19T00:57:29;15.20;;;8.23;;
19495;SDS011;9888;48.606;9.630;2023-06-19T00:59:57;18.40;;;9.20;;
19495;SDS011;9888;48.606;9.630;2023-06-19T01:02:30;19.73;;;9.90;;
19495;SDS011;9888;48.606;9.630;2023-06-19T01:04:57;18.43;;;9.00;;
19495;SDS011;9888;48.606;9.630;2023-06-19T01:10:38;25.63;;;9.67;;
19495;SDS011;9888;48.606;9.630;2023-06-19T01:13:34;21.37;;;10.77;;
19495;SDS011;9888;48.606;9.630;2023-06-19T01:16:19;21.07;;;11.13;;
19495;SDS011;9888;48.606;9.630;2023-06-19T01:18:51;20.17;;;10.83;;
19495;SDS011;9888;48.606;9.630;2023-06-19T01:21:20;22.27;;;10.93;;
19495;SDS011;9888;48.606;9.630;2023-06-19T01:23:49;20.60;;;11.50;;
19495;SDS011;9888;48.606;9.630;2023-06-19T01:26:20;20.57;;;12.10;;
19495;SDS011;9888;48.606;9.630;2023-06-19T01:28:53;19.63;;;12.20;;
19495;SDS011;9888;48.606;9.630;2023-06-19T01:31:26;20.30;;;12.50;;
19495;SDS011;9888;48.606;9.630;2023-06-19T01:33:57;21.97;;;12.00;;
19495;SDS011;9888;48.606;9.630;2023-06-19T01:36:27;20.27;;;11.80;;
19495;SDS011;9888;48.606;9.630;2023-06-19T01:38:58;19.70;;;12.30;;
19495;SDS011;9888;48.606;9.630;2023-06-19T01:41:26;19.50;;;11.97;;
19495;SDS011;9888;48.606;9.630;2023-06-19T01:43:56;19.70;;;11.13;;
19495;SDS011;9888;48.606;9.630;2023-06-19T01:46:24;19.73;;;12.27;;
19495;SDS011;9888;48.606;9.630;2023-06-19T01:48:51;20.73;;;12.33;;
19495;SDS011;9888;48.606;9.630;2023-06-19T01:51:20;18.23;;;12.07;;
19495;SDS011;9888;48.606;9.630;2023-06-19T01:53:47;18.30;;;12.30;;
19495;SDS011;9888;48.606;9.630;2023-06-19T01:56:15;19.17;;;11.73;;
19495;SDS011;9888;48.606;9.630;2023-06-19T01:58:44;19.30;;;11.80;;
19495;SDS011;9888;48.606;9.630;2023-06-19T02:01:11;19.23;;;11.20;;
19495;SDS011;9888;48.606;9.630;2023-06-19T02:03:39;20.33;;;12.33;;
19495;SDS011;9888;48.606;9.630;2023-06-19T02:06:12;20.00;;;11.87;;
19495;SDS011;9888;48.606;9.630;2023-06-19T02:08:43;18.77;;;11.50;;
19495;SDS011;9888;48.606;9.630;2023-06-19T02:11:11;20.10;;;11.47;;
19495;SDS011;9888;48.606;9.630;2023-06-19T02:13:41;18.60;;;11.30;;
19495;SDS011;9888;48.606;9.630;2023-06-19T02:16:18;17.97;;;10.67;;
19495;SDS011;9888;48.606;9.630;2023-06-19T02:18:45;19.90;;;10.83;;
19495;SDS011;9888;48.606;9.630;2023-06-19T02:21:12;20.27;;;11.73;;
19495;SDS011;9888;48.606;9.630;2023-06-19T02:23:41;19.43;;;10.83;;
19495;SDS011;9888;48.606;9.630;2023-06-19T02:26:15;18.20;;;12.00;;
19495;SDS011;9888;48.606;9.630;2023-06-19T02:28:44;18.93;;;10.27;;
19495;SDS011;9888;48.606;9.630;2023-06-19T02:31:12;20.27;;;12.20;;
19495;SDS011;9888;48.606;9.630;2023-06-19T02:33:41;18.87;;;11.60;;
19495;SDS011;9888;48.606;9.630;2023-06-19T02:36:13;19.60;;;11.93;;
19495;SDS011;9888;48.606;9.630;2023-06-19T02:38:48;18.57;;;11.50;;
19495;SDS011;9888;48.606;9.630;2023-06-19T02:41:16;18.63;;;11.50;;
19495;SDS011;9888;48.606;9.630;2023-06-19T02:43:44;17.30;;;10.93;;
19495;SDS011;9888;48.606;9.630;2023-06-19T02:46:18;22.73;;;11.30;;
19495;SDS011;9888;48.606;9.630;2023-06-19T02:48:48;17.17;;;11.83;;
19495;SDS011;9888;48.606;9.630;2023-06-19T02:51:16;17.73;;;10.80;;
19495;SDS011;9888;48.606;9.630;2023-06-19T02:53:46;17.47;;;11.43;;
19495;SDS011;9888;48.606;9.630;2023-06-19T02:56:16;20.43;;;12.20;;
19495;SDS011;9888;48.606;9.630;2023-06-19T02:58:47;21.07;;;12.60;;
19495;SDS011;9888;48.606;9.630;2023-06-19T03:01:16;20.53;;;11.53;;
19495;SDS011;9888;48.606;9.630;2023-06-19T03:03:43;19.23;;;11.67;;
19495;SDS011;9888;48.606;9.630;2023-06-19T03:06:11;17.53;;;11.63;;
19495;SDS011;9888;48.606;9.630;2023-06-19T03:08:40;20.63;;;12.27;;
19495;SDS011;9888;48.606;9.630;2023-06-19T03:11:09;20.20;;;12.60;;
19495;SDS011;9888;48.606;9.630;2023-06-19T03:13:53;17.73;;;11.47;;
19495;SDS011;9888;48.606;9.630;2023-06-19T03:16:23;20.07;;;11.87;;
19495;SDS011;9888;48.606;9.630;2023-06-19T03:18:52;18.63;;;12.03;;
19495;SDS011;9888;48.606;9.630;2023-06-19T03:21:21;20.93;;;10.50;;
19495;SDS011;9888;48.606;9.630;2023-06-19T03:23:50;23.03;;;11.70;;
19495;SDS011;9888;48.606;9.630;2023-06-19T03:26:23;21.90;;;11.67;;
19495;SDS011;9888;48.606;9.630;2023-06-19T03:28:52;17.13;;;10.40;;
19495;SDS011;9888;48.606;9.630;2023-06-19T03:31:21;18.77;;;11.70;;
19495;SDS011;9888;48.606;9.630;2023-06-19T03:33:48;20.97;;;12.50;;
19495;SDS011;9888;48.606;9.630;2023-06-19T03:36:19;20.40;;;12.73;;
19495;SDS011;9888;48.606;9.630;2023-06-19T03:38:54;19.10;;;10.80;;
19495;SDS011;9888;48.606;9.630;2023-06-19T03:41:25;17.00;;;10.40;;
19495;SDS011;9888;48.606;9.630;2023-06-19T03:43:56;18.70;;;11.77;;
19495;SDS011;9888;48.606;9.630;2023-06-19T03:46:41;22.17;;;11.53;;
19495;SDS011;9888;48.606;9.630;2023-06-19T03:49:09;16.90;;;10.20;;
19495;SDS011;9888;48.606;9.630;2023-06-19T03:51:40;14.30;;;8.47;;
19495;SDS011;9888;48.606;9.630;2023-06-19T03:57:32;11.87;;;5.30;;
19495;SDS011;9888;48.606;9.630;2023-06-19T04:00:03;10.23;;;5.60;;
19495;SDS011;9888;48.606;9.630;2023-06-19T04:02:36;9.30;;;4.63;;
19495;SDS011;9888;48.606;9.630;2023-06-19T04:05:08;9.77;;;4.40;;
19495;SDS011;9888;48.606;9.630;2023-06-19T04:10:35;9.70;;;4.27;;
19495;SDS011;9888;48.606;9.630;2023-06-19T04:16:30;9.70;;;4.30;;
19495;SDS011;9888;48.606;9.630;2023-06-19T04:18:59;13.70;;;5.53;;
19495;SDS011;9888;48.606;9.630;2023-06-19T04:21:27;10.57;;;5.47;;
19495;SDS011;9888;48.606;9.630;2023-06-19T04:24:00;10.40;;;4.60;;
19495;SDS011;9888;48.606;9.630;2023-06-19T04:26:30;13.03;;;4.70;;
19495;SDS011;9888;48.606;9.630;2023-06-19T04:28:57;10.70;;;4.80;;
19495;SDS011;9888;48.606;9.630;2023-06-19T04:31:30;10.80;;;4.73;;
19495;SDS011;9888;48.606;9.630;2023-06-19T04:34:00;10.03;;;4.40;;
19495;SDS011;9888;48.606;9.630;2023-06-19T04:36:34;11.20;;;4.53;;
19495;SDS011;9888;48.606;9.630;2023-06-19T04:39:12;9.00;;;3.80;;
19495;SDS011;9888;48.606;9.630;2023-06-19T04:41:43;11.70;;;4.93;;
19495;SDS011;9888;48.606;9.630;2023-06-19T04:44:12;11.17;;;4.43;;
19495;SDS011;9888;48.606;9.630;2023-06-19T04:46:42;10.47;;;4.20;;
19495;SDS011;9888;48.606;9.630;2023-06-19T04:54:53;15.97;;;4.47;;
19495;SDS011;9888;48.606;9.630;2023-06-19T04:57:21;9.53;;;3.97;;
19495;SDS011;9888;48.606;9.630;2023-06-19T04:59:49;10.93;;;4.20;;
19495;SDS011;9888;48.606;9.630;2023-06-19T05:02:16;13.00;;;4.40;;
19495;SDS011;9888;48.606;9.630;2023-06-19T05:04:45;10.87;;;4.70;;
19495;SDS011;9888;48.606;9.630;2023-06-19T05:07:13;11.10;;;4.20;;
19495;SDS011;9888;48.606;9.630;2023-06-19T05:09:41;10.30;;;4.50;;
19495;SDS011;9888;48.606;9.630;2023-06-19T05:12:09;16.40;;;3.97;;
19495;SDS011;9888;48.606;9.630;2023-06-19T05:14:37;9.00;;;4.10;;
19495;SDS011;9888;48.606;9.630;2023-06-19T05:17:05;20.13;;;4.07;;
19495;SDS011;9888;48.606;9.630;2023-06-19T05:19:34;8.60;;;3.00;;
19495;SDS011;9888;48.606;9.630;2023-06-19T05:22:03;11.60;;;3.60;;
19495;SDS011;9888;48.606;9.630;2023-06-19T05:24:31;9.33;;;3.93;;
19495;SDS011;9888;48.606;9.630;2023-06-19T05:27:02;9.80;;;3.80;;
19495;SDS011;9888;48.606;9.630;2023-06-19T05:29:31;9.10;;;4.30;;
19495;SDS011;9888;48.606;9.630;2023-06-19T05:31:58;9.63;;;3.80;;
19495;SDS011;9888;48.606;9.630;2023-06-19T05:34:28;8.90;;;3.50;;
19495;SDS011;9888;48.606;9.630;2023-06-19T05:36:57;8.40;;;3.90;;
19495;SDS011;9888;48.606;9.630;2023-06-19T05:39:31;10.10;;;4.27;;
19495;SDS011;9888;48.606;9.630;2023-06-19T05:41:58;10.70;;;3.53;;
19495;SDS011;9888;48.606;9.630;2023-06-19T05:44:25;10.17;;;3.83;;
19495;SDS011;9888;48.606;9.630;2023-06-19T05:46:52;58.03;;;9.70;;
19495;SDS011;9888;48.606;9.630;2023-06-19T05:49:20;21.37;;;4.77;;
19495;SDS011;9888;48.606;9.630;2023-06-19T05:51:47;18.67;;;5.30;;
19495;SDS011;9888;48.606;9.630;2023-06-19T05:54:15;10.50;;;4.53;;
19495;SDS011;9888;48.606;9.630;2023-06-19T05:56:46;10.33;;;4.03;;
19495;SDS011;9888;48.606;9.630;2023-06-19T05:59:16;7.40;;;2.50;;
19495;SDS011;9888;48.606;9.630;2023-06-19T06:01:45;9.20;;;3.00;;
19495;SDS011;9888;48.606;9.630;2023-06-19T06:04:13;7.30;;;2.73;;
19495;SDS011;9888;48.606;9.630;2023-06-19T06:06:48;15.30;;;3.60;;
19495;SDS011;9888;48.606;9.630;2023-06-19T06:12:12;11.87;;;4.10;;
19495;SDS011;9888;48.606;9.630;2023-06-19T06:14:40;17.60;;;4.97;;
19495;SDS011;9888;48.606;9.630;2023-06-19T06:17:19;14.40;;;6.30;;
19495;SDS011;9888;48.606;9.630;2023-06-19T06:19:47;12.43;;;5.67;;
19495;SDS011;9888;48.606;9.630;2023-06-19T06:22:18;11.33;;;3.73;;
19495;SDS011;9888;48.606;9.630;2023-06-19T06:24:45;25.43;;;12.27;;
19495;SDS011;9888;48.606;9.630;2023-06-19T06:27:12;16.43;;;7.47;;
19495;SDS011;9888;48.606;9.630;2023-06-19T06:29:42;19.80;;;10.27;;
19495;SDS011;9888;48.606;9.630;2023-06-19T06:32:10;20.80;;;9.80;;
19495;SDS011;9888;48.606;9.630;2023-06-19T06:34:42;15.33;;;6.03;;
19495;SDS011;9888;48.606;9.630;2023-06-19T06:37:12;19.00;;;8.93;;
19495;SDS011;9888;48.606;9.630;2023-06-19T06:39:41;15.40;;;7.10;;
19495;SDS011;9888;48.606;9.630;2023-06-19T06:42:13;9.87;;;4.17;;
19495;SDS011;9888;48.606;9.630;2023-06-19T06:44:42;10.80;;;4.13;;
19495;SDS011;9888;48.606;9.630;2023-06-19T06:47:10;7.50;;;2.77;;
19495;SDS011;9888;48.606;9.630;2023-06-19T06:49:38;27.13;;;13.07;;
19495;SDS011;9888;48.606;9.630;2023-06-19T06:52:06;20.67;;;7.50;;
19495;SDS011;9888;48.606;9.630;2023-06-19T06:54:34;7.77;;;2.60;;
19495;SDS011;9888;48.606;9.630;2023-06-19T06:57:01;25.17;;;9.13;;
19495;SDS011;9888;48.606;9.630;2023-06-19T06:59:30;20.77;;;6.30;;
19495;SDS011;9888;48.606;9.630;2023-06-19T07:01:57;14.00;;;5.60;;
19495;SDS011;9888;48.606;9.630;2023-06-19T07:04:25;25.00;;;9.50;;
19495;SDS011;9888;48.606;9.630;2023-06-19T07:06:52;7.57;;;2.60;;
19495;SDS011;9888;48.606;9.630;2023-06-19T07:09:20;15.23;;;4.80;;
19495;SDS011;9888;48.606;9.630;2023-06-19T07:11:47;22.13;;;9.30;;
19495;SDS011;9888;48.606;9.630;2023-06-19T07:14:15;22.93;;;11.77;;
19495;SDS011;9888;48.606;9.630;2023-06-19T07:16:44;19.90;;;9.80;;
19495;SDS011;9888;48.606;9.630;2023-06-19T07:19:11;19.23;;;7.30;;
19495;SDS011;9888;48.606;9.630;2023-06-19T07:21:39;10.40;;;4.00;;
19495;SDS011;9888;48.606;9.630;2023-06-19T07:24:07;10.63;;;4.00;;
19495;SDS011;9888;48.606;9.630;2023-06-19T07:26:35;10.60;;;3.93;;
19495;SDS011;9888;48.606;9.630;2023-06-19T07:29:02;9.37;;;3.63;;
19495;SDS011;9888;48.606;9.630;2023-06-19T07:31:31;24.20;;;10.60;;
19495;SDS011;9888;48.606;9.630;2023-06-19T07:34:00;8.90;;;3.50;;
19495;SDS011;9888;48.606;9.630;2023-06-19T07:36:27;12.10;;;3.37;;
19495;SDS011;9888;48.606;9.630;2023-06-19T07:38:55;17.13;;;3.70;;
19495;SDS011;9888;48.606;9.630;2023-06-19T07:41:23;8.10;;;3.00;;
19495;SDS011;9888;48.606;9.630;2023-06-19T07:43:51;8.97;;;3.20;;
19495;SDS011;9888;48.606;9.630;2023-06-19T07:46:19;10.63;;;3.80;;
19495;SDS011;9888;48.606;9.630;2023-06-19T07:48:47;8.10;;;3.57;;
19495;SDS011;9888;48.606;9.630;2023-06-19T07:54:50;9.83;;;3.77;;
19495;SDS011;9888;48.606;9.630;2023-06-19T07:57:26;9.07;;;4.33;;
19495;SDS011;9888;48.606;9.630;2023-06-19T07:59:56;9.50;;;4.33;;
19495;SDS011;9888;48.606;9.630;2023-06-19T08:02:32;9.67;;;4.77;;
19495;SDS011;9888;48.606;9.630;2023-06-19T08:05:01;9.33;;;4.50;;
19495;SDS011;9888;48.606;9.630;2023-06-19T08:07:28;11.80;;;5.27;;
19495;SDS011;9888;48.606;9.630;2023-06-19T08:09:57;9.50;;;4.73;;
19495;SDS011;9888;48.606;9.630;2023-06-19T08:12:25;10.47;;;5.10;;
19495;SDS011;9888;48.606;9.630;2023-06-19T08:14:53;9.53;;;4.50;;
19495;SDS011;9888;48.606;9.630;2023-06-19T08:17:20;10.23;;;4.60;;
19495;SDS011;9888;48.606;9.630;2023-06-19T08:19:49;10.00;;;5.00;;
19495;SDS011;9888;48.606;9.630;2023-06-19T08:22:17;10.50;;;5.00;;
19495;SDS011;9888;48.606;9.630;2023-06-19T08:24:46;10.80;;;5.50;;
19495;SDS011;9888;48.606;9.630;2023-06-19T08:27:15;10.10;;;4.90;;
19495;SDS011;9888;48.606;9.630;2023-06-19T08:29:43;8.60;;;4.37;;
19495;SDS011;9888;48.606;9.630;2023-06-19T08:32:10;10.53;;;4.70;;
19495;SDS011;9888;48.606;9.630;2023-06-19T08:34:39;10.87;;;5.27;;
19495;SDS011;9888;48.606;9.630;2023-06-19T08:37:07;11.70;;;5.27;;
19495;SDS011;9888;48.606;9.630;2023-06-19T08:46:18;8.90;;;4.00;;
19495;SDS011;9888;48.606;9.630;2023-06-19T08:48:57;9.13;;;4.40;;
19495;SDS011;9888;48.606;9.630;2023-06-19T08:51:28;10.40;;;4.30;;
19495;SDS011;9888;48.606;9.630;2023-06-19T08:54:03;10.33;;;4.20;;
19495;SDS011;9888;48.606;9.630;2023-06-19T08:56:31;12.20;;;4.30;;
19495;SDS011;9888;48.606;9.630;2023-06-19T08:59:11;10.30;;;5.07;;
19495;SDS011;9888;48.606;9.630;2023-06-19T09:02:04;8.57;;;4.23;;
19495;SDS011;9888;48.606;9.630;2023-06-19T09:05:11;8.03;;;4.00;;
19495;SDS011;9888;48.606;9.630;2023-06-19T09:07:40;9.37;;;4.10;;
19495;SDS011;9888;48.606;9.630;2023-06-19T09:10:16;9.80;;;3.47;;
19495;SDS011;9888;48.606;9.630;2023-06-19T09:12:55;8.70;;;3.87;;
19495;SDS011;9888;48.606;9.630;2023-06-19T09:18:46;9.10;;;4.20;;
19495;SDS011;9888;48.606;9.630;2023-06-19T09:21:22;11.17;;;5.10;;
19495;SDS011;9888;48.606;9.630;2023-06-19T09:24:01;8.30;;;3.93;;
19495;SDS011;9888;48.606;9.630;2023-06-19T09:26:32;8.57;;;3.73;;
19495;SDS011;9888;48.606;9.630;2023-06-19T09:29:17;11.10;;;4.00;;
19495;SDS011;9888;48.606;9.630;2023-06-19T09:31:45;9.57;;;4.00;;
19495;SDS011;9888;48.606;9.630;2023-06-19T09:37:31;7.90;;;3.83;;
19495;SDS011;9888;48.606;9.630;2023-06-19T09:40:01;8.13;;;3.80;;
19495;SDS011;9888;48.606;9.630;2023-06-19T09:42:38;9.30;;;4.17;;
19495;SDS011;9888;48.606;9.630;2023-06-19T09:45:12;7.93;;;3.30;;
19495;SDS011;9888;48.606;9.630;2023-06-19T09:47:47;8.30;;;3.20;;
19495;SDS011;9888;48.606;9.630;2023-06-19T09:50:21;9.70;;;3.37;;
19495;SDS011;9888;48.606;9.630;2023-06-19T09:52:55;12.40;;;6.90;;
19495;SDS011;9888;48.606;9.630;2023-06-19T09:55:29;10.33;;;3.93;;
19495;SDS011;9888;48.606;9.630;2023-06-19T09:58:03;8.47;;;3.30;;
19495;SDS011;9888;48.606;9.630;2023-06-19T10:00:31;8.70;;;3.70;;
19495;SDS011;9888;48.606;9.630;2023-06-19T10:03:01;8.60;;;3.73;;
19495;SDS011;9888;48.606;9.630;2023-06-19T10:05:37;9.50;;;3.67;;
19495;SDS011;9888;48.606;9.630;2023-06-19T10:08:06;8.47;;;3.50;;
19495;SDS011;9888;48.606;9.630;2023-06-19T10:10:36;10.57;;;3.50;;
19495;SDS011;9888;48.606;9.630;2023-06-19T10:13:15;8.00;;;3.40;;
19495;SDS011;9888;48.606;9.630;2023-06-19T10:15:45;7.83;;;3.00;;
19495;SDS011;9888;48.606;9.630;2023-06-19T10:18:14;8.13;;;3.17;;
19495;SDS011;9888;48.606;9.630;2023-06-19T10:20:45;8.80;;;3.57;;
19495;SDS011;9888;48.606;9.630;2023-06-19T10:23:16;8.53;;;3.87;;
19495;SDS011;9888;48.606;9.630;2023-06-19T10:25:57;10.30;;;4.60;;
19495;SDS011;9888;48.606;9.630;2023-06-19T10:28:45;9.17;;;4.13;;
19495;SDS011;9888;48.606;9.630;2023-06-19T10:31:15;9.53;;;3.50;;
19495;SDS011;9888;48.606;9.630;2023-06-19T10:33:49;9.40;;;3.93;;
19495;SDS011;9888;48.606;9.630;2023-06-19T10:36:20;9.40;;;3.73;;
19495;SDS011;9888;48.606;9.630;2023-06-19T10:38:51;12.20;;;3.70;;
19495;SDS011;9888;48.606;9.630;2023-06-19T10:41:20;8.67;;;3.53;;
19495;SDS011;9888;48.606;9.630;2023-06-19T10:44:03;21.10;;;14.30;;
19495;SDS011;9888;48.606;9.630;2023-06-19T10:46:40;8.10;;;3.63;;
19495;SDS011;9888;48.606;9.630;2023-06-19T10:49:08;29.53;;;19.17;;
19495;SDS011;9888;48.606;9.630;2023-06-19T10:51:39;8.23;;;3.50;;
19495;SDS011;9888;48.606;9.630;2023-06-19T10:54:11;9.00;;;3.70;;
19495;SDS011;9888;48.606;9.630;2023-06-19T10:56:40;11.43;;;3.60;;
19495;SDS011;9888;48.606;9.630;2023-06-19T10:59:16;9.33;;;3.70;;
19495;SDS011;9888;48.606;9.630;2023-06-19T11:02:06;8.40;;;3.63;;
19495;SDS011;9888;48.606;9.630;2023-06-19T11:04:36;10.30;;;3.83;;
19495;SDS011;9888;48.606;9.630;2023-06-19T11:07:07;7.93;;;3.07;;
19495;SDS011;9888;48.606;9.630;2023-06-19T11:09:36;8.03;;;3.77;;
19495;SDS011;9888;48.606;9.630;2023-06-19T11:12:03;8.50;;;4.03;;
19495;SDS011;9888;48.606;9.630;2023-06-19T11:14:34;8.80;;;3.73;;
19495;SDS011;9888;48.606;9.630;2023-06-19T11:17:05;8.80;;;4.10;;
19495;SDS011;9888;48.606;9.630;2023-06-19T11:19:34;9.67;;;3.67;;
19495;SDS011;9888;48.606;9.630;2023-06-19T11:22:11;10.63;;;3.97;;
19495;SDS011;9888;48.606;9.630;2023-06-19T11:28:15;9.13;;;3.37;;
19495;SDS011;9888;48.606;9.630;2023-06-19T11:31:11;7.70;;;3.50;;
19495;SDS011;9888;48.606;9.630;2023-06-19T11:33:55;8.90;;;3.23;;
19495;SDS011;9888;48.606;9.630;2023-06-19T11:36:25;9.00;;;3.77;;
19495;SDS011;9888;48.606;9.630;2023-06-19T11:39:03;9.23;;;3.90;;
19495;SDS011;9888;48.606;9.630;2023-06-19T11:41:45;16.77;;;7.53;;
19495;SDS011;9888;48.606;9.630;2023-06-19T11:44:14;9.10;;;3.70;;
19495;SDS011;9888;48.606;9.630;2023-06-19T11:46:41;8.37;;;3.70;;
19495;SDS011;9888;48.606;9.630;2023-06-19T11:51:46;9.13;;;3.57;;
19495;SDS011;9888;48.606;9.630;2023-06-19T11:54:14;8.37;;;3.60;;
19495;SDS011;9888;48.606;9.630;2023-06-19T11:56:44;12.90;;;3.80;;
19495;SDS011;9888;48.606;9.630;2023-06-19T11:59:17;8.33;;;3.03;;
19495;SDS011;9888;48.606;9.630;2023-06-19T12:01:45;7.80;;;3.27;;
19495;SDS011;9888;48.606;9.630;2023-06-19T12:04:13;10.70;;;4.00;;
19495;SDS011;9888;48.606;9.630;2023-06-19T12:06:44;10.00;;;3.37;;
19495;SDS011;9888;48.606;9.630;2023-06-19T12:09:12;10.27;;;3.90;;
19495;SDS011;9888;48.606;9.630;2023-06-19T12:11:40;12.17;;;3.43;;
19495;SDS011;9888;48.606;9.630;2023-06-19T12:14:08;10.57;;;3.50;;
19495;SDS011;9888;48.606;9.630;2023-06-19T12:16:39;9.27;;;4.40;;
19495;SDS011;9888;48.606;9.630;2023-06-19T12:19:10;9.50;;;5.23;;
19495;SDS011;9888;48.606;9.630;2023-06-19T12:21:39;8.33;;;3.97;;
19495;SDS011;9888;48.606;9.630;2023-06-19T12:24:11;10.20;;;4.00;;
19495;SDS011;9888;48.606;9.630;2023-06-19T12:26:42;8.10;;;3.57;;
19495;SDS011;9888;48.606;9.630;2023-06-19T12:29:10;8.50;;;4.10;;
19495;SDS011;9888;48.606;9.630;2023-06-19T12:31:38;14.50;;;4.20;;
19495;SDS011;9888;48.606;9.630;2023-06-19T12:34:05;12.10;;;6.90;;
19495;SDS011;9888;48.606;9.630;2023-06-19T12:36:32;10.70;;;4.77;;
19495;SDS011;9888;48.606;9.630;2023-06-19T12:39:02;9.20;;;4.30;;
19495;SDS011;9888;48.606;9.630;2023-06-19T12:41:38;10.50;;;4.80;;
19495;SDS011;9888;48.606;9.630;2023-06-19T12:44:08;12.33;;;4.97;;
19495;SDS011;9888;48.606;9.630;2023-06-19T12:46:37;9.00;;;4.90;;
19495;SDS011;9888;48.606;9.630;2023-06-19T12:49:05;10.17;;;4.77;;
19495;SDS011;9888;48.606;9.630;2023-06-19T12:51:33;9.50;;;4.90;;
19495;SDS011;9888;48.606;9.630;2023-06-19T12:54:01;8.13;;;4.17;;
19495;SDS011;9888;48.606;9.630;2023-06-19T12:56:29;13.37;;;4.63;;
19495;SDS011;9888;48.606;9.630;2023-06-19T12:58:57;9.20;;;4.60;;
19495;SDS011;9888;48.606;9.630;2023-06-19T13:01:25;11.77;;;6.57;;
19495;SDS011;9888;48.606;9.630;2023-06-19T13:03:53;10.07;;;4.97;;
19495;SDS011;9888;48.606;9.630;2023-06-19T13:06:22;19.77;;;10.60;;
19495;SDS011;9888;48.606;9.630;2023-06-19T13:08:51;33.73;;;15.03;;
19495;SDS011;9888;48.606;9.630;2023-06-19T13:11:19;9.30;;;5.00;;
19495;SDS011;9888;48.606;9.630;2023-06-19T13:16:59;14.80;;;7.60;;
19495;SDS011;9888;48.606;9.630;2023-06-19T13:22:49;9.10;;;4.50;;
19495;SDS011;9888;48.606;9.630;2023-06-19T13:25:18;10.83;;;4.90;;
19495;SDS011;9888;48.606;9.630;2023-06-19T13:27:46;8.90;;;5.20;;
19495;SDS011;9888;48.606;9.630;2023-06-19T13:30:14;9.00;;;4.87;;
19495;SDS011;9888;48.606;9.630;2023-06-19T13:32:43;10.23;;;5.73;;
19495;SDS011;9888;48.606;9.630;2023-06-19T13:35:17;8.97;;;5.27;;
19495;SDS011;9888;48.606;9.630;2023-06-19T13:37:47;9.50;;;5.40;;
19495;SDS011;9888;48.606;9.630;2023-06-19T13:40:17;12.33;;;5.40;;
19495;SDS011;9888;48.606;9.630;2023-06-19T13:42:47;8.90;;;4.80;;
19495;SDS011;9888;48.606;9.630;2023-06-19T13:45:16;11.50;;;5.27;;
19495;SDS011;9888;48.606;9.630;2023-06-19T13:47:44;9.40;;;5.70;;
19495;SDS011;9888;48.606;9.630;2023-06-19T13:50:11;9.57;;;5.20;;
19495;SDS011;9888;48.606;9.630;2023-06-19T13:52:49;9.50;;;5.50;;
19495;SDS011;9888;48.606;9.630;2023-06-19T13:58:13;9.37;;;4.80;;
19495;SDS011;9888;48.606;9.630;2023-06-19T14:00:41;9.70;;;5.90;;
19495;SDS011;9888;48.606;9.630;2023-06-19T14:09:43;10.60;;;5.40;;
19495;SDS011;9888;48.606;9.630;2023-06-19T14:12:29;9.67;;;5.80;;
19495;SDS011;9888;48.606;9.630;2023-06-19T14:14:56;9.23;;;5.57;;
19495;SDS011;9888;48.606;9.630;2023-06-19T14:17:27;10.07;;;6.10;;
19495;SDS011;9888;48.606;9.630;2023-06-19T14:20:07;10.60;;;5.13;;
19495;SDS011;9888;48.606;9.630;2023-06-19T14:23:10;39.80;;;7.73;;
19495;SDS011;9888;48.606;9.630;2023-06-19T14:25:46;13.73;;;6.07;;
19495;SDS011;9888;48.606;9.630;2023-06-19T14:31:35;12.13;;;5.70;;
19495;SDS011;9888;48.606;9.630;2023-06-19T14:34:07;9.17;;;5.60;;
19495;SDS011;9888;48.606;9.630;2023-06-19T14:36:40;16.47;;;5.90;;
19495;SDS011;9888;48.606;9.630;2023-06-19T14:42:44;9.87;;;6.03;;
19495;SDS011;9888;48.606;9.630;2023-06-19T14:45:12;9.27;;;5.53;;
19495;SDS011;9888;48.606;9.630;2023-06-19T14:47:43;9.37;;;4.80;;
19495;SDS011;9888;48.606;9.630;2023-06-19T14:50:17;9.87;;;5.93;;
19495;SDS011;9888;48.606;9.630;2023-06-19T14:52:45;10.50;;;5.57;;
19495;SDS011;9888;48.606;9.630;2023-06-19T14:55:15;10.80;;;5.90;;
19495;SDS011;9888;48.606;9.630;2023-06-19T14:57:44;11.30;;;5.50;;
19495;SDS011;9888;48.606;9.630;2023-06-19T15:00:12;13.73;;;6.00;;
19495;SDS011;9888;48.606;9.630;2023-06-19T15:02:48;27.33;;;6.77;;
19495;SDS011;9888;48.606;9.630;2023-06-19T15:05:15;10.73;;;5.70;;
19495;SDS011;9888;48.606;9.630;2023-06-19T15:07:42;10.50;;;5.57;;
19495;SDS011;9888;48.606;9.630;2023-06-19T15:10:10;12.10;;;6.53;;
19495;SDS011;9888;48.606;9.630;2023-06-19T15:12:51;11.50;;;5.57;;
19495;SDS011;9888;48.606;9.630;2023-06-19T15:15:21;16.93;;;6.13;;
19495;SDS011;9888;48.606;9.630;2023-06-19T15:20:52;14.90;;;5.87;;
19495;SDS011;9888;48.606;9.630;2023-06-19T15:26:49;9.10;;;5.30;;
19495;SDS011;9888;48.606;9.630;2023-06-19T15:29:17;11.13;;;5.27;;
19495;SDS011;9888;48.606;9.630;2023-06-19T15:31:46;13.37;;;5.50;;
19495;SDS011;9888;48.606;9.630;2023-06-19T15:34:16;11.07;;;5.80;;
19495;SDS011;9888;48.606;9.630;2023-06-19T15:36:46;13.27;;;5.50;;
19495;SDS011;9888;48.606;9.630;2023-06-19T15:39:13;10.40;;;5.63;;
19495;SDS011;9888;48.606;9.630;2023-06-19T15:41:42;14.43;;;5.37;;
19495;SDS011;9888;48.606;9.630;2023-06-19T15:44:11;21.90;;;5.70;;
19495;SDS011;9888;48.606;9.630;2023-06-19T15:46:40;16.13;;;5.83;;
19495;SDS011;9888;48.606;9.630;2023-06-19T15:49:07;9.37;;;5.43;;
19495;SDS011;9888;48.606;9.630;2023-06-19T15:51:38;14.63;;;5.60;;
19495;SDS011;9888;48.606;9.630;2023-06-19T15:54:06;10.90;;;5.20;;
19495;SDS011;9888;48.606;9.630;2023-06-19T15:56:34;10.70;;;5.20;;
19495;SDS011;9888;48.606;9.630;2023-06-19T15:59:04;10.57;;;5.50;;
19495;SDS011;9888;48.606;9.630;2023-06-19T16:01:32;10.17;;;5.27;;
19495;SDS011;9888;48.606;9.630;2023-06-19T16:04:00;11.23;;;5.40;;
19495;SDS011;9888;48.606;9.630;2023-06-19T16:06:27;11.37;;;5.63;;
19495;SDS011;9888;48.606;9.630;2023-06-19T16:09:14;12.83;;;5.30;;
19495;SDS011;9888;48.606;9.630;2023-06-19T16:11:44;10.23;;;5.00;;
19495;SDS011;9888;48.606;9.630;2023-06-19T16:14:14;9.77;;;5.20;;
19495;SDS011;9888;48.606;9.630;2023-06-19T16:16:42;9.60;;;5.27;;
19495;SDS011;9888;48.606;9.630;2023-06-19T16:19:10;9.53;;;4.73;;
19495;SDS011;9888;48.606;9.630;2023-06-19T16:21:38;10.10;;;5.40;;
19495;SDS011;9888;48.606;9.630;2023-06-19T16:24:06;10.10;;;5.10;;
19495;SDS011;9888;48.606;9.630;2023-06-19T16:26:33;9.77;;;5.30;;
19495;SDS011;9888;48.606;9.630;2023-06-19T16:29:00;10.70;;;5.00;;
19495;SDS011;9888;48.606;9.630;2023-06-19T16:31:36;9.90;;;4.87;;